createdAt,value
2017-10-08T00:00:19.309Z,1003.50
2017-10-08T00:01:19.917Z,1003.53
2017-10-08T00:02:20.524Z,1003.45
2017-10-08T00:03:21.133Z,1003.52
2017-10-08T00:04:21.751Z,1003.52
2017-10-08T00:05:22.346Z,1003.54
2017-10-08T00:06:22.954Z,1003.57
2017-10-08T00:07:23.561Z,1003.56
2017-10-08T00:08:24.167Z,1003.55
2017-10-08T00:09:24.776Z,1003.58
2017-10-08T00:10:25.382Z,1003.51
2017-10-08T00:11:25.989Z,1003.54
2017-10-08T00:12:26.600Z,1003.58
2017-10-08T00:13:27.202Z,1003.61
2017-10-08T00:14:27.811Z,1003.53
2017-10-08T00:15:28.406Z,1003.57
2017-10-08T00:16:29.014Z,1003.61
2017-10-08T00:17:29.620Z,1003.59
2017-10-08T00:18:30.230Z,1003.61
2017-10-08T00:19:30.835Z,1003.64
2017-10-08T00:20:31.445Z,1003.63
2017-10-08T00:21:32.056Z,1003.61
2017-10-08T00:22:32.659Z,1003.63
2017-10-08T00:23:33.268Z,1003.67
2017-10-08T00:24:33.907Z,1003.59
2017-10-08T00:25:34.474Z,1003.58
2017-10-08T00:26:35.079Z,1003.56
2017-10-08T00:27:35.685Z,1003.65
2017-10-08T00:28:36.295Z,1003.62
2017-10-08T00:29:36.899Z,1003.66
2017-10-08T00:30:37.506Z,1003.66
2017-10-08T00:31:38.114Z,1003.70
2017-10-08T00:32:38.721Z,1003.66
2017-10-08T00:33:39.329Z,1003.67
2017-10-08T00:34:39.939Z,1003.66
2017-10-08T00:35:40.544Z,1003.71
2017-10-08T00:36:41.155Z,1003.70
2017-10-08T00:37:41.762Z,1003.73
2017-10-08T00:38:42.358Z,1003.72
2017-10-08T00:39:42.953Z,1003.72
2017-10-08T00:40:43.553Z,1003.73
2017-10-08T00:41:44.162Z,1003.76
2017-10-08T00:42:44.769Z,1003.76
2017-10-08T00:43:45.375Z,1003.79
2017-10-08T00:44:45.971Z,1003.84
2017-10-08T00:45:46.578Z,1003.82
2017-10-08T00:46:47.176Z,1003.83
2017-10-08T00:47:47.783Z,1003.80
2017-10-08T00:48:48.389Z,1003.82
2017-10-08T00:49:48.999Z,1003.78
2017-10-08T00:50:49.604Z,1003.76
2017-10-08T00:51:50.203Z,1003.78
2017-10-08T00:52:50.809Z,1003.77
2017-10-08T00:53:51.411Z,1003.84
2017-10-08T00:54:52.018Z,1003.82
2017-10-08T00:55:52.623Z,1003.76
2017-10-08T00:56:53.230Z,1003.82
2017-10-08T00:57:53.837Z,1003.79
2017-10-08T00:58:54.443Z,1003.75
2017-10-08T00:59:55.052Z,1003.77
2017-10-08T01:00:55.658Z,1003.83
2017-10-08T01:01:56.271Z,1003.81
2017-10-08T01:02:56.879Z,1003.80
2017-10-08T01:03:57.476Z,1003.81
2017-10-08T01:04:58.069Z,1003.84
2017-10-08T01:05:58.676Z,1003.83
2017-10-08T01:06:59.274Z,1003.83
2017-10-08T01:07:59.881Z,1003.84
2017-10-08T01:09:00.488Z,1003.81
2017-10-08T01:10:01.084Z,1003.87
2017-10-08T01:11:01.729Z,1003.92
2017-10-08T01:12:02.301Z,1003.89
2017-10-08T01:13:02.896Z,1003.86
2017-10-08T01:14:03.492Z,1003.92
2017-10-08T01:15:04.093Z,1003.94
2017-10-08T01:16:04.699Z,1003.97
2017-10-08T01:17:05.294Z,1003.98
2017-10-08T01:18:05.903Z,1003.99
2017-10-08T01:19:06.512Z,1003.99
2017-10-08T01:20:07.121Z,1004.04
2017-10-08T01:21:07.718Z,1004.00
2017-10-08T01:22:08.326Z,1004.02
2017-10-08T01:23:08.932Z,1003.98
2017-10-08T01:24:09.526Z,1004.00
2017-10-08T01:25:10.123Z,1003.96
2017-10-08T01:26:10.731Z,1003.98
2017-10-08T01:27:11.328Z,1004.02
2017-10-08T01:28:11.930Z,1004.01
2017-10-08T01:29:12.540Z,1003.97
2017-10-08T01:30:13.148Z,1003.95
2017-10-08T01:31:13.755Z,1004.00
2017-10-08T01:32:14.364Z,1004.01
2017-10-08T01:33:14.969Z,1004.09
2017-10-08T01:34:15.577Z,1004.08
2017-10-08T01:35:16.171Z,1004.02
2017-10-08T01:36:16.768Z,1004.01
2017-10-08T01:37:17.373Z,1004.05
2017-10-08T01:38:17.982Z,1004.05
2017-10-08T01:39:18.593Z,1004.08
2017-10-08T01:40:19.197Z,1004.09
2017-10-08T01:41:19.796Z,1004.08
2017-10-08T01:42:20.401Z,1004.13
2017-10-08T01:43:21.009Z,1004.08
2017-10-08T01:44:21.616Z,1004.11
2017-10-08T01:45:22.211Z,1004.16
2017-10-08T01:46:22.817Z,1004.15
2017-10-08T01:47:23.426Z,1004.16
2017-10-08T01:48:24.034Z,1004.16
2017-10-08T01:49:24.640Z,1004.19
2017-10-08T01:50:25.253Z,1004.14
2017-10-08T01:51:25.849Z,1004.15
2017-10-08T01:52:26.460Z,1004.14
2017-10-08T01:53:27.055Z,1004.12
2017-10-08T01:54:27.658Z,1004.14
2017-10-08T01:55:28.267Z,1004.14
2017-10-08T01:56:28.877Z,1004.15
2017-10-08T01:57:29.481Z,1004.17
2017-10-08T01:58:30.081Z,1004.16
2017-10-08T01:59:30.687Z,1004.16
2017-10-08T02:00:31.294Z,1004.17
2017-10-08T02:01:31.904Z,1004.14
2017-10-08T02:02:32.510Z,1004.16
2017-10-08T02:03:33.120Z,1004.16
2017-10-08T02:04:33.725Z,1004.13
2017-10-08T02:05:34.325Z,1004.18
2017-10-08T02:06:34.933Z,1004.14
2017-10-08T02:07:35.538Z,1004.15
2017-10-08T02:08:36.146Z,1004.12
2017-10-08T02:09:36.752Z,1004.12
2017-10-08T02:10:37.360Z,1004.12
2017-10-08T02:11:37.968Z,1004.16
2017-10-08T02:12:38.576Z,1004.15
2017-10-08T02:13:39.176Z,1004.17
2017-10-08T02:14:39.772Z,1004.19
2017-10-08T02:15:40.371Z,1004.25
2017-10-08T02:16:40.973Z,1004.23
2017-10-08T02:17:41.574Z,1004.21
2017-10-08T02:18:42.184Z,1004.23
2017-10-08T02:19:42.779Z,1004.27
2017-10-08T02:20:43.389Z,1004.26
2017-10-08T02:21:43.998Z,1004.29
2017-10-08T02:22:44.609Z,1004.28
2017-10-08T02:23:45.213Z,1004.32
2017-10-08T02:24:45.818Z,1004.33
2017-10-08T02:25:46.418Z,1004.36
2017-10-08T02:26:47.025Z,1004.37
2017-10-08T02:27:47.633Z,1004.29
2017-10-08T02:28:48.227Z,1004.35
2017-10-08T02:29:48.834Z,1004.36
2017-10-08T02:30:49.446Z,1004.40
2017-10-08T02:31:50.040Z,1004.40
2017-10-08T02:32:50.636Z,1004.42
2017-10-08T02:33:51.248Z,1004.42
2017-10-08T02:34:51.855Z,1004.42
2017-10-08T02:35:52.458Z,1004.41
2017-10-08T02:36:53.069Z,1004.40
2017-10-08T02:37:53.677Z,1004.42
2017-10-08T02:38:54.283Z,1004.40
2017-10-08T02:39:54.881Z,1004.42
2017-10-08T02:40:55.491Z,1004.41
2017-10-08T02:41:56.087Z,1004.44
2017-10-08T02:42:56.694Z,1004.40
2017-10-08T02:43:57.301Z,1004.42
2017-10-08T02:44:57.896Z,1004.44
2017-10-08T02:45:58.496Z,1004.41
2017-10-08T02:46:59.103Z,1004.41
2017-10-08T02:47:59.700Z,1004.44
2017-10-08T02:49:00.308Z,1004.44
2017-10-08T02:50:00.917Z,1004.43
2017-10-08T02:51:01.520Z,1004.46
2017-10-08T02:52:02.113Z,1004.44
2017-10-08T02:53:02.724Z,1004.45
2017-10-08T02:54:03.331Z,1004.45
2017-10-08T02:55:03.942Z,1004.45
2017-10-08T02:56:04.547Z,1004.47
2017-10-08T02:57:05.167Z,1004.50
2017-10-08T02:58:05.767Z,1004.49
2017-10-08T02:59:06.359Z,1004.50
2017-10-08T03:00:06.956Z,1004.51
2017-10-08T03:01:07.562Z,1004.49
2017-10-08T03:02:08.169Z,1004.51
2017-10-08T03:03:08.776Z,1004.56
2017-10-08T03:04:09.384Z,1004.54
2017-10-08T03:05:09.981Z,1004.51
2017-10-08T03:06:10.592Z,1004.51
2017-10-08T03:07:11.197Z,1004.51
2017-10-08T03:08:11.808Z,1004.53
2017-10-08T03:09:12.413Z,1004.55
2017-10-08T03:10:13.021Z,1004.58
2017-10-08T03:11:13.630Z,1004.58
2017-10-08T03:12:14.228Z,1004.61
2017-10-08T03:13:14.835Z,1004.59
2017-10-08T03:14:15.429Z,1004.64
2017-10-08T03:15:16.026Z,1004.62
2017-10-08T03:16:16.632Z,1004.66
2017-10-08T03:17:17.231Z,1004.65
2017-10-08T03:18:17.845Z,1004.64
2017-10-08T03:19:18.438Z,1004.68
2017-10-08T03:20:19.031Z,1004.62
2017-10-08T03:21:19.641Z,1004.65
2017-10-08T03:22:20.248Z,1004.67
2017-10-08T03:23:20.855Z,1004.68
2017-10-08T03:24:21.462Z,1004.69
2017-10-08T03:25:22.070Z,1004.71
2017-10-08T03:26:22.682Z,1004.69
2017-10-08T03:27:23.292Z,1004.68
2017-10-08T03:28:23.896Z,1004.68
2017-10-08T03:29:24.507Z,1004.74
2017-10-08T03:30:25.115Z,1004.75
2017-10-08T03:31:25.719Z,1004.80
2017-10-08T03:32:26.328Z,1004.76
2017-10-08T03:33:26.939Z,1004.76
2017-10-08T03:34:27.550Z,1004.81
2017-10-08T03:35:28.153Z,1004.79
2017-10-08T03:36:28.759Z,1004.78
2017-10-08T03:37:29.367Z,1004.79
2017-10-08T03:38:29.977Z,1004.83
2017-10-08T03:39:30.592Z,1004.81
2017-10-08T03:40:31.194Z,1004.87
2017-10-08T03:41:31.794Z,1004.87
2017-10-08T03:42:32.398Z,1004.91
2017-10-08T03:43:33.005Z,1004.90
2017-10-08T03:44:33.611Z,1004.86
2017-10-08T03:45:34.211Z,1004.91
2017-10-08T03:46:34.814Z,1004.88
2017-10-08T03:47:35.415Z,1004.88
2017-10-08T03:48:36.013Z,1004.91
2017-10-08T03:49:36.623Z,1004.91
2017-10-08T03:50:37.227Z,1004.88
2017-10-08T03:51:37.833Z,1004.87
2017-10-08T03:52:38.432Z,1004.88
2017-10-08T03:53:39.047Z,1004.87
2017-10-08T03:54:39.650Z,1004.92
2017-10-08T03:55:40.250Z,1004.88
2017-10-08T03:56:40.855Z,1004.94
2017-10-08T03:57:41.446Z,1004.93
2017-10-08T03:58:42.044Z,1004.98
2017-10-08T03:59:42.652Z,1004.93
2017-10-08T04:00:43.260Z,1005.01
2017-10-08T04:01:43.871Z,1005.03
2017-10-08T04:02:44.468Z,1005.01
2017-10-08T04:03:45.073Z,1005.01
2017-10-08T04:04:45.672Z,1005.00
2017-10-08T04:05:46.267Z,1005.03
2017-10-08T04:06:46.870Z,1005.04
2017-10-08T04:07:47.473Z,1005.03
2017-10-08T04:08:48.080Z,1005.05
2017-10-08T04:09:48.689Z,1005.04
2017-10-08T04:10:49.285Z,1005.07
2017-10-08T04:11:49.891Z,1005.09
2017-10-08T04:12:50.501Z,1005.05
2017-10-08T04:13:51.100Z,1005.09
2017-10-08T04:14:51.706Z,1005.08
2017-10-08T04:15:52.309Z,1005.09
2017-10-08T04:16:52.912Z,1005.13
2017-10-08T04:17:53.514Z,1005.18
2017-10-08T04:18:54.125Z,1005.13
2017-10-08T04:19:54.732Z,1005.13
2017-10-08T04:20:55.333Z,1005.10
2017-10-08T04:21:55.934Z,1005.12
2017-10-08T04:22:56.541Z,1005.15
2017-10-08T04:23:57.147Z,1005.15
2017-10-08T04:24:57.748Z,1005.15
2017-10-08T04:25:58.352Z,1005.20
2017-10-08T04:26:58.960Z,1005.19
2017-10-08T04:27:59.563Z,1005.23
2017-10-08T04:29:00.155Z,1005.29
2017-10-08T04:30:00.752Z,1005.22
2017-10-08T04:31:01.359Z,1005.25
2017-10-08T04:32:01.961Z,1005.29
2017-10-08T04:33:02.563Z,1005.34
2017-10-08T04:34:03.174Z,1005.32
2017-10-08T04:35:03.772Z,1005.28
2017-10-08T04:36:04.375Z,1005.34
2017-10-08T04:37:04.984Z,1005.31
2017-10-08T04:38:05.593Z,1005.36
2017-10-08T04:39:06.196Z,1005.33
2017-10-08T04:40:06.803Z,1005.35
2017-10-08T04:41:07.410Z,1005.35
2017-10-08T04:42:08.018Z,1005.34
2017-10-08T04:43:08.628Z,1005.32
2017-10-08T04:44:09.239Z,1005.38
2017-10-08T04:45:09.833Z,1005.40
2017-10-08T04:46:10.445Z,1005.36
2017-10-08T04:47:11.049Z,1005.39
2017-10-08T04:48:11.657Z,1005.39
2017-10-08T04:49:12.255Z,1005.38
2017-10-08T04:50:12.849Z,1005.39
2017-10-08T04:51:13.455Z,1005.44
2017-10-08T04:52:14.055Z,1005.44
2017-10-08T04:53:14.662Z,1005.44
2017-10-08T04:54:15.258Z,1005.40
2017-10-08T04:55:15.854Z,1005.39
2017-10-08T04:56:16.450Z,1005.42
2017-10-08T04:57:17.060Z,1005.48
2017-10-08T04:58:17.673Z,1005.46
2017-10-08T04:59:18.276Z,1005.45
2017-10-08T05:00:18.885Z,1005.44
2017-10-08T05:01:19.493Z,1005.47
2017-10-08T05:02:20.095Z,1005.45
2017-10-08T05:03:20.700Z,1005.49
2017-10-08T05:04:21.308Z,1005.45
2017-10-08T05:05:21.919Z,1005.46
2017-10-08T05:06:22.516Z,1005.48
2017-10-08T05:07:23.114Z,1005.45
2017-10-08T05:08:23.720Z,1005.48
2017-10-08T05:09:24.318Z,1005.49
2017-10-08T05:10:24.924Z,1005.44
2017-10-08T05:11:25.522Z,1005.47
2017-10-08T05:12:26.133Z,1005.42
2017-10-08T05:13:26.738Z,1005.50
2017-10-08T05:14:27.346Z,1005.50
2017-10-08T05:15:27.953Z,1005.50
2017-10-08T05:16:28.558Z,1005.46
2017-10-08T05:17:29.169Z,1005.52
2017-10-08T05:18:29.762Z,1005.51
2017-10-08T05:19:30.373Z,1005.54
2017-10-08T05:20:30.979Z,1005.55
2017-10-08T05:21:31.587Z,1005.53
2017-10-08T05:22:32.191Z,1005.55
2017-10-08T05:23:32.801Z,1005.50
2017-10-08T05:24:33.407Z,1005.54
2017-10-08T05:25:34.013Z,1005.53
2017-10-08T05:26:34.612Z,1005.56
2017-10-08T05:27:35.210Z,1005.55
2017-10-08T05:28:35.818Z,1005.56
2017-10-08T05:29:36.426Z,1005.54
2017-10-08T05:30:37.034Z,1005.50
2017-10-08T05:31:37.641Z,1005.51
2017-10-08T05:32:38.252Z,1005.52
2017-10-08T05:33:38.870Z,1005.51
2017-10-08T05:34:39.456Z,1005.52
2017-10-08T05:35:40.054Z,1005.53
2017-10-08T05:36:40.663Z,1005.51
2017-10-08T05:37:41.273Z,1005.51
2017-10-08T05:38:41.880Z,1005.53
2017-10-08T05:39:42.479Z,1005.57
2017-10-08T05:40:43.082Z,1005.54
2017-10-08T05:41:43.688Z,1005.60
2017-10-08T05:42:44.298Z,1005.59
2017-10-08T05:43:44.911Z,1005.58
2017-10-08T05:44:45.517Z,1005.64
2017-10-08T05:45:46.116Z,1005.61
2017-10-08T05:46:46.727Z,1005.63
2017-10-08T05:47:47.339Z,1005.65
2017-10-08T05:48:47.950Z,1005.64
2017-10-08T05:49:48.560Z,1005.67
2017-10-08T05:50:49.173Z,1005.67
2017-10-08T05:51:49.806Z,1005.68
2017-10-08T05:52:50.410Z,1005.69
2017-10-08T05:53:51.050Z,1005.68
2017-10-08T05:54:51.979Z,1005.70
2017-10-08T05:55:52.798Z,1005.67
2017-10-08T05:56:53.313Z,1005.69
2017-10-08T05:57:53.933Z,1005.70
2017-10-08T05:58:54.535Z,1005.67
2017-10-08T05:59:55.158Z,1005.71
2017-10-08T06:00:55.761Z,1005.69
2017-10-08T06:01:56.388Z,1005.70
2017-10-08T06:02:56.999Z,1005.69
2017-10-08T06:03:57.640Z,1005.73
2017-10-08T06:04:58.592Z,1005.75
2017-10-08T06:05:59.109Z,1005.77
2017-10-08T06:06:59.717Z,1005.76
2017-10-08T06:08:00.332Z,1005.76
2017-10-08T06:09:00.952Z,1005.81
2017-10-08T06:10:01.574Z,1005.80
2017-10-08T06:11:02.176Z,1005.80
2017-10-08T06:12:02.817Z,1005.85
2017-10-08T06:13:03.403Z,1005.85
2017-10-08T06:14:04.022Z,1005.87
2017-10-08T06:15:04.659Z,1005.87
2017-10-08T06:16:05.250Z,1005.88
2017-10-08T06:17:05.848Z,1005.93
2017-10-08T06:18:06.450Z,1005.92
2017-10-08T06:19:07.065Z,1005.92
2017-10-08T06:20:07.665Z,1005.89
2017-10-08T06:21:08.282Z,1005.88
2017-10-08T06:22:08.892Z,1005.92
2017-10-08T06:23:09.503Z,1005.91
2017-10-08T06:24:10.111Z,1005.89
2017-10-08T06:25:10.722Z,1005.90
2017-10-08T06:26:11.327Z,1005.97
2017-10-08T06:27:11.933Z,1005.97
2017-10-08T06:28:12.544Z,1006.04
2017-10-08T06:29:13.147Z,1005.96
2017-10-08T06:30:13.747Z,1005.99
2017-10-08T06:31:14.363Z,1005.99
2017-10-08T06:32:14.976Z,1006.03
2017-10-08T06:33:15.587Z,1006.05
2017-10-08T06:34:16.198Z,1006.06
2017-10-08T06:35:16.805Z,1006.02
2017-10-08T06:36:17.420Z,1006.09
2017-10-08T06:37:18.031Z,1006.04
2017-10-08T06:38:18.642Z,1006.05
2017-10-08T06:39:19.240Z,1006.07
2017-10-08T06:40:19.851Z,1006.14
2017-10-08T06:41:20.465Z,1006.11
2017-10-08T06:42:21.069Z,1006.13
2017-10-08T06:43:21.672Z,1006.11
2017-10-08T06:44:22.273Z,1006.16
2017-10-08T06:45:22.885Z,1006.17
2017-10-08T06:46:23.498Z,1006.20
2017-10-08T06:47:24.111Z,1006.23
2017-10-08T06:48:24.725Z,1006.20
2017-10-08T06:49:25.331Z,1006.23
2017-10-08T06:50:25.949Z,1006.25
2017-10-08T06:51:26.541Z,1006.29
2017-10-08T06:52:27.154Z,1006.26
2017-10-08T06:53:27.766Z,1006.29
2017-10-08T06:54:28.373Z,1006.28
2017-10-08T06:55:28.989Z,1006.23
2017-10-08T06:56:29.595Z,1006.33
2017-10-08T06:57:30.208Z,1006.33
2017-10-08T06:58:30.812Z,1006.34
2017-10-08T06:59:31.422Z,1006.38
2017-10-08T07:00:32.032Z,1006.37
2017-10-08T07:01:32.637Z,1006.40
2017-10-08T07:02:33.238Z,1006.42
2017-10-08T07:03:33.852Z,1006.39
2017-10-08T07:04:34.453Z,1006.43
2017-10-08T07:05:35.065Z,1006.40
2017-10-08T07:06:35.669Z,1006.39
2017-10-08T07:07:36.279Z,1006.45
2017-10-08T07:08:36.894Z,1006.42
2017-10-08T07:09:37.507Z,1006.45
2017-10-08T07:10:38.119Z,1006.44
2017-10-08T07:11:38.735Z,1006.50
2017-10-08T07:12:39.350Z,1006.47
2017-10-08T07:13:39.957Z,1006.49
2017-10-08T07:14:40.575Z,1006.44
2017-10-08T07:15:41.172Z,1006.45
2017-10-08T07:16:41.787Z,1006.51
2017-10-08T07:17:42.405Z,1006.56
2017-10-08T07:18:43.009Z,1006.51
2017-10-08T07:19:43.624Z,1006.56
2017-10-08T07:20:44.239Z,1006.58
2017-10-08T07:21:44.853Z,1006.58
2017-10-08T07:22:45.491Z,1006.62
2017-10-08T07:23:46.075Z,1006.63
2017-10-08T07:24:46.686Z,1006.58
2017-10-08T07:25:47.294Z,1006.56
2017-10-08T07:26:47.902Z,1006.63
2017-10-08T07:27:48.520Z,1006.64
2017-10-08T07:28:49.138Z,1006.63
2017-10-08T07:29:49.757Z,1006.64
2017-10-08T07:30:50.368Z,1006.62
2017-10-08T07:31:50.988Z,1006.60
2017-10-08T07:32:51.603Z,1006.64
2017-10-08T07:33:52.209Z,1006.65
2017-10-08T07:34:52.826Z,1006.63
2017-10-08T07:35:53.441Z,1006.61
2017-10-08T07:36:54.117Z,1006.68
2017-10-08T07:37:54.737Z,1006.67
2017-10-08T07:38:55.350Z,1006.71
2017-10-08T07:39:55.961Z,1006.70
2017-10-08T07:40:56.578Z,1006.71
2017-10-08T07:41:57.192Z,1006.73
2017-10-08T07:42:57.804Z,1006.75
2017-10-08T07:43:58.424Z,1006.77
2017-10-08T07:44:59.034Z,1006.82
2017-10-08T07:45:59.638Z,1006.76
2017-10-08T07:47:00.244Z,1006.81
2017-10-08T07:48:00.863Z,1006.74
2017-10-08T07:49:01.479Z,1006.78
2017-10-08T07:50:02.094Z,1006.76
2017-10-08T07:51:02.725Z,1006.76
2017-10-08T07:52:03.333Z,1006.79
2017-10-08T07:53:03.942Z,1006.80
2017-10-08T07:54:04.549Z,1006.82
2017-10-08T07:55:05.167Z,1006.80
2017-10-08T07:56:05.786Z,1006.81
2017-10-08T07:57:06.401Z,1006.79
2017-10-08T07:58:07.022Z,1006.78
2017-10-08T07:59:07.636Z,1006.85
2017-10-08T08:00:08.254Z,1006.73
2017-10-08T08:01:08.876Z,1006.79
2017-10-08T08:02:09.495Z,1006.80
2017-10-08T08:03:10.116Z,1006.87
2017-10-08T08:04:10.741Z,1006.80
2017-10-08T08:05:11.359Z,1006.84
2017-10-08T08:06:11.978Z,1006.83
2017-10-08T08:07:12.625Z,1006.81
2017-10-08T08:08:13.221Z,1006.82
2017-10-08T08:09:13.844Z,1006.86
2017-10-08T08:10:14.458Z,1006.90
2017-10-08T08:11:15.076Z,1006.87
2017-10-08T08:12:15.696Z,1006.93
2017-10-08T08:13:16.309Z,1006.92
2017-10-08T08:14:16.927Z,1006.95
2017-10-08T08:15:17.546Z,1006.94
2017-10-08T08:16:18.162Z,1006.90
2017-10-08T08:17:18.771Z,1006.99
2017-10-08T08:18:19.391Z,1006.95
2017-10-08T08:19:20.006Z,1007.00
2017-10-08T08:20:20.630Z,1007.04
2017-10-08T08:21:21.250Z,1007.03
2017-10-08T08:22:21.862Z,1007.06
2017-10-08T08:23:22.483Z,1007.03
2017-10-08T08:24:23.100Z,1007.07
2017-10-08T08:25:23.720Z,1007.10
2017-10-08T08:26:24.335Z,1007.08
2017-10-08T08:27:24.957Z,1007.09
2017-10-08T08:28:25.572Z,1007.19
2017-10-08T08:29:26.181Z,1007.15
2017-10-08T08:30:26.797Z,1007.15
2017-10-08T08:31:27.413Z,1007.16
2017-10-08T08:32:28.032Z,1007.16
2017-10-08T08:33:28.651Z,1007.16
2017-10-08T08:34:29.266Z,1007.13
2017-10-08T08:35:29.885Z,1007.22
2017-10-08T08:36:30.501Z,1007.20
2017-10-08T08:37:31.110Z,1007.24
2017-10-08T08:38:31.727Z,1007.26
2017-10-08T08:39:32.341Z,1007.27
2017-10-08T08:40:32.952Z,1007.25
2017-10-08T08:41:33.563Z,1007.22
2017-10-08T08:42:34.176Z,1007.24
2017-10-08T08:43:34.796Z,1007.30
2017-10-08T08:44:35.414Z,1007.25
2017-10-08T08:45:36.028Z,1007.29
2017-10-08T08:46:36.646Z,1007.32
2017-10-08T08:47:37.262Z,1007.34
2017-10-08T08:48:37.882Z,1007.34
2017-10-08T08:49:38.497Z,1007.35
2017-10-08T08:50:39.161Z,1007.33
2017-10-08T08:51:39.766Z,1007.36
2017-10-08T08:52:40.392Z,1007.38
2017-10-08T08:53:41.010Z,1007.33
2017-10-08T08:54:41.623Z,1007.45
2017-10-08T08:55:42.235Z,1007.42
2017-10-08T08:56:42.853Z,1007.41
2017-10-08T08:57:43.461Z,1007.42
2017-10-08T08:58:44.064Z,1007.45
2017-10-08T08:59:44.678Z,1007.45
2017-10-08T09:00:45.287Z,1007.51
2017-10-08T09:01:45.901Z,1007.49
2017-10-08T09:02:46.517Z,1007.50
2017-10-08T09:03:47.134Z,1007.49
2017-10-08T09:04:47.750Z,1007.55
2017-10-08T09:05:48.362Z,1007.53
2017-10-08T09:06:48.978Z,1007.49
2017-10-08T09:07:49.583Z,1007.53
2017-10-08T09:08:50.196Z,1007.61
2017-10-08T09:09:50.814Z,1007.64
2017-10-08T09:10:51.446Z,1007.61
2017-10-08T09:11:52.054Z,1007.61
2017-10-08T09:12:52.669Z,1007.68
2017-10-08T09:13:53.283Z,1007.69
2017-10-08T09:14:53.897Z,1007.71
2017-10-08T09:15:54.511Z,1007.73
2017-10-08T09:16:55.120Z,1007.75
2017-10-08T09:17:55.742Z,1007.73
2017-10-08T09:18:56.355Z,1007.73
2017-10-08T09:19:56.965Z,1007.79
2017-10-08T09:20:57.662Z,1007.77
2017-10-08T09:21:58.192Z,1007.73
2017-10-08T09:22:58.806Z,1007.76
2017-10-08T09:23:59.421Z,1007.77
2017-10-08T09:25:00.036Z,1007.78
2017-10-08T09:26:00.657Z,1007.79
2017-10-08T09:27:01.261Z,1007.76
2017-10-08T09:28:01.877Z,1007.74
2017-10-08T09:29:02.495Z,1007.76
2017-10-08T09:30:03.108Z,1007.76
2017-10-08T09:31:03.729Z,1007.75
2017-10-08T09:32:04.334Z,1007.72
2017-10-08T09:33:04.960Z,1007.76
2017-10-08T09:34:05.568Z,1007.81
2017-10-08T09:35:06.180Z,1007.80
2017-10-08T09:36:06.798Z,1007.85
2017-10-08T09:37:07.414Z,1007.81
2017-10-08T09:38:08.028Z,1007.84
2017-10-08T09:39:08.638Z,1007.84
2017-10-08T09:40:09.243Z,1007.88
2017-10-08T09:41:09.864Z,1007.87
2017-10-08T09:42:10.473Z,1007.84
2017-10-08T09:43:11.089Z,1007.88
2017-10-08T09:44:11.702Z,1007.90
2017-10-08T09:45:12.398Z,1007.86
2017-10-08T09:46:13.017Z,1007.83
2017-10-08T09:47:13.628Z,1007.85
2017-10-08T09:48:14.240Z,1007.85
2017-10-08T09:49:14.845Z,1007.83
2017-10-08T09:50:15.445Z,1007.86
2017-10-08T09:51:16.059Z,1007.84
2017-10-08T09:52:16.674Z,1007.89
2017-10-08T09:53:17.287Z,1007.92
2017-10-08T09:54:17.906Z,1007.96
2017-10-08T09:55:18.526Z,1007.94
2017-10-08T09:56:19.121Z,1007.96
2017-10-08T09:57:19.733Z,1007.98
2017-10-08T09:58:20.338Z,1008.00
2017-10-08T09:59:20.952Z,1007.99
2017-10-08T10:00:21.557Z,1008.00
2017-10-08T10:01:22.173Z,1007.98
2017-10-08T10:02:22.790Z,1007.99
2017-10-08T10:03:23.403Z,1008.02
2017-10-08T10:04:24.006Z,1008.01
2017-10-08T10:05:24.624Z,1007.98
2017-10-08T10:06:25.238Z,1007.99
2017-10-08T10:07:25.856Z,1007.97
2017-10-08T10:08:26.459Z,1007.95
2017-10-08T10:09:27.080Z,1007.91
2017-10-08T10:10:27.697Z,1007.98
2017-10-08T10:11:28.314Z,1007.95
2017-10-08T10:12:28.936Z,1007.96
2017-10-08T10:13:29.551Z,1007.98
2017-10-08T10:14:30.169Z,1007.98
2017-10-08T10:15:30.784Z,1007.96
2017-10-08T10:16:31.403Z,1007.98
2017-10-08T10:17:32.024Z,1007.98
2017-10-08T10:18:32.638Z,1007.97
2017-10-08T10:19:33.256Z,1007.97
2017-10-08T10:20:33.870Z,1007.96
2017-10-08T10:21:34.503Z,1008.02
2017-10-08T10:22:35.116Z,1008.03
2017-10-08T10:23:35.720Z,1008.01
2017-10-08T10:24:36.323Z,1008.01
2017-10-08T10:25:36.942Z,1007.99
2017-10-08T10:26:37.558Z,1008.01
2017-10-08T10:27:38.179Z,1007.97
2017-10-08T10:28:38.793Z,1008.00
2017-10-08T10:29:39.405Z,1008.02
2017-10-08T10:30:40.019Z,1008.02
2017-10-08T10:31:40.630Z,1008.00
2017-10-08T10:32:41.228Z,1008.00
2017-10-08T10:33:41.833Z,1008.02
2017-10-08T10:34:42.441Z,1008.06
2017-10-08T10:35:43.041Z,1008.05
2017-10-08T10:36:43.659Z,1008.05
2017-10-08T10:37:44.262Z,1008.05
2017-10-08T10:38:44.877Z,1008.06
2017-10-08T10:39:45.496Z,1008.10
2017-10-08T10:40:46.110Z,1008.09
2017-10-08T10:41:46.726Z,1008.10
2017-10-08T10:42:47.339Z,1008.07
2017-10-08T10:43:47.948Z,1008.11
2017-10-08T10:44:48.561Z,1008.04
2017-10-08T10:45:49.176Z,1008.12
2017-10-08T10:46:49.792Z,1008.05
2017-10-08T10:47:50.399Z,1008.09
2017-10-08T10:48:51.013Z,1008.07
2017-10-08T10:49:51.630Z,1008.10
2017-10-08T10:50:52.249Z,1008.12
2017-10-08T10:51:52.860Z,1008.10
2017-10-08T10:52:53.474Z,1008.10
2017-10-08T10:53:54.089Z,1008.12
2017-10-08T10:54:54.699Z,1008.07
2017-10-08T10:55:55.313Z,1008.09
2017-10-08T10:56:55.928Z,1008.14
2017-10-08T10:57:56.541Z,1008.15
2017-10-08T10:58:57.154Z,1008.15
2017-10-08T10:59:57.767Z,1008.11
2017-10-08T11:00:58.370Z,1008.12
2017-10-08T11:01:58.989Z,1008.13
2017-10-08T11:02:59.600Z,1008.17
2017-10-08T11:04:00.211Z,1008.15
2017-10-08T11:05:00.832Z,1008.13
2017-10-08T11:06:01.440Z,1008.07
2017-10-08T11:07:02.056Z,1008.10
2017-10-08T11:08:02.675Z,1008.10
2017-10-08T11:09:03.324Z,1008.11
2017-10-08T11:10:03.945Z,1008.12
2017-10-08T11:11:04.550Z,1008.11
2017-10-08T11:12:05.167Z,1008.14
2017-10-08T11:13:05.786Z,1008.16
2017-10-08T11:14:06.408Z,1008.12
2017-10-08T11:15:07.021Z,1008.16
2017-10-08T11:16:07.627Z,1008.18
2017-10-08T11:17:08.240Z,1008.18
2017-10-08T11:18:08.866Z,1008.17
2017-10-08T11:19:09.506Z,1008.19
2017-10-08T11:20:10.094Z,1008.24
2017-10-08T11:21:10.710Z,1008.19
2017-10-08T11:22:11.317Z,1008.27
2017-10-08T11:23:11.933Z,1008.28
2017-10-08T11:24:12.550Z,1008.25
2017-10-08T11:25:13.164Z,1008.29
2017-10-08T11:26:13.781Z,1008.24
2017-10-08T11:27:14.400Z,1008.25
2017-10-08T11:28:15.014Z,1008.26
2017-10-08T11:29:15.628Z,1008.31
2017-10-08T11:30:16.244Z,1008.28
2017-10-08T11:31:16.860Z,1008.30
2017-10-08T11:32:17.477Z,1008.32
2017-10-08T11:33:18.090Z,1008.32
2017-10-08T11:34:18.698Z,1008.35
2017-10-08T11:35:19.306Z,1008.33
2017-10-08T11:36:19.920Z,1008.36
2017-10-08T11:37:20.531Z,1008.38
2017-10-08T11:38:21.149Z,1008.36
2017-10-08T11:39:21.766Z,1008.32
2017-10-08T11:40:22.369Z,1008.33
2017-10-08T11:41:23.010Z,1008.26
2017-10-08T11:42:23.601Z,1008.28
2017-10-08T11:43:24.207Z,1008.24
2017-10-08T11:44:24.829Z,1008.25
2017-10-08T11:45:25.448Z,1008.18
2017-10-08T11:46:26.060Z,1008.23
2017-10-08T11:47:26.687Z,1008.25
2017-10-08T11:48:27.299Z,1008.25
2017-10-08T11:49:27.987Z,1008.22
2017-10-08T11:50:28.589Z,1008.23
2017-10-08T11:51:29.202Z,1008.28
2017-10-08T11:52:29.817Z,1008.24
2017-10-08T11:53:30.428Z,1008.25
2017-10-08T11:54:31.040Z,1008.25
2017-10-08T11:55:31.682Z,1008.24
2017-10-08T11:56:32.297Z,1008.28
2017-10-08T11:57:32.912Z,1008.29
2017-10-08T11:58:33.519Z,1008.27
2017-10-08T11:59:34.174Z,1008.23
2017-10-08T12:00:34.777Z,1008.31
2017-10-08T12:01:35.385Z,1008.29
2017-10-08T12:02:36.003Z,1008.34
2017-10-08T12:03:36.621Z,1008.34
2017-10-08T12:04:37.241Z,1008.31
2017-10-08T12:05:37.852Z,1008.36
2017-10-08T12:06:38.465Z,1008.38
2017-10-08T12:07:39.081Z,1008.31
2017-10-08T12:08:39.694Z,1008.39
2017-10-08T12:09:40.299Z,1008.40
2017-10-08T12:10:40.916Z,1008.39
2017-10-08T12:11:41.533Z,1008.40
2017-10-08T12:12:42.161Z,1008.36